sensor_id;sensor_type;location;lat;lon;timestamp;temperature;humidity
2907;DHT22;1463;51.070;16.998;2024-03-07T00:00:01;5.80;99.90
2907;DHT22;1463;51.070;16.998;2024-03-07T00:02:29;6.00;99.90
2907;DHT22;1463;51.070;16.998;2024-03-07T00:04:56;5.90;99.90
2907;DHT22;1463;51.070;16.998;2024-03-07T00:07:22;5.80;99.90
2907;DHT22;1463;51.070;16.998;2024-03-07T00:09:51;5.80;99.90
2907;DHT22;1463;51.070;16.998;2024-03-07T00:12:19;5.80;99.90
2907;DHT22;1463;51.070;16.998;2024-03-07T00:14:46;5.80;99.90
2907;DHT22;1463;51.070;16.998;2024-03-07T00:17:13;5.80;99.90
2907;DHT22;1463;51.070;16.998;2024-03-07T00:19:39;5.70;99.90
2907;DHT22;1463;51.070;16.998;2024-03-07T00:22:06;5.70;99.90
2907;DHT22;1463;51.070;16.998;2024-03-07T00:24:34;5.70;99.90
2907;DHT22;1463;51.070;16.998;2024-03-07T00:27:02;5.70;99.90
2907;DHT22;1463;51.070;16.998;2024-03-07T00:29:29;5.70;99.90
2907;DHT22;1463;51.070;16.998;2024-03-07T00:31:56;5.70;99.90
2907;DHT22;1463;51.070;16.998;2024-03-07T00:34:24;5.70;99.90
2907;DHT22;1463;51.070;16.998;2024-03-07T00:36:51;5.70;99.90
2907;DHT22;1463;51.070;16.998;2024-03-07T00:39:18;5.70;99.90
2907;DHT22;1463;51.070;16.998;2024-03-07T00:41:45;5.70;99.90
2907;DHT22;1463;51.070;16.998;2024-03-07T00:44:14;5.60;99.90
2907;DHT22;1463;51.070;16.998;2024-03-07T00:46:41;5.60;99.90
2907;DHT22;1463;51.070;16.998;2024-03-07T00:49:08;5.60;99.90
2907;DHT22;1463;51.070;16.998;2024-03-07T00:51:35;5.40;99.90
2907;DHT22;1463;51.070;16.998;2024-03-07T00:54:02;5.50;99.90
2907;DHT22;1463;51.070;16.998;2024-03-07T00:56:29;5.60;99.90
2907;DHT22;1463;51.070;16.998;2024-03-07T00:58:55;5.60;99.90
2907;DHT22;1463;51.070;16.998;2024-03-07T01:01:24;5.60;99.90
2907;DHT22;1463;51.070;16.998;2024-03-07T01:03:51;5.60;99.90
2907;DHT22;1463;51.070;16.998;2024-03-07T01:06:18;5.50;99.90
2907;DHT22;1463;51.070;16.998;2024-03-07T01:08:45;5.50;99.90
2907;DHT22;1463;51.070;16.998;2024-03-07T01:11:12;5.50;99.90
2907;DHT22;1463;51.070;16.998;2024-03-07T01:13:39;5.40;99.90
2907;DHT22;1463;51.070;16.998;2024-03-07T01:16:06;5.50;99.90
2907;DHT22;1463;51.070;16.998;2024-03-07T01:18:35;5.50;99.90
2907;DHT22;1463;51.070;16.998;2024-03-07T01:21:04;5.60;99.90
2907;DHT22;1463;51.070;16.998;2024-03-07T01:23:32;5.50;99.90
2907;DHT22;1463;51.070;16.998;2024-03-07T01:25:59;5.50;99.90
2907;DHT22;1463;51.070;16.998;2024-03-07T01:28:26;5.40;99.90
2907;DHT22;1463;51.070;16.998;2024-03-07T01:30:56;5.40;99.90
2907;DHT22;1463;51.070;16.998;2024-03-07T01:33:23;5.40;99.90
2907;DHT22;1463;51.070;16.998;2024-03-07T01:35:52;5.40;99.90
2907;DHT22;1463;51.070;16.998;2024-03-07T01:38:18;5.50;99.90
2907;DHT22;1463;51.070;16.998;2024-03-07T01:40:45;5.50;99.90
2907;DHT22;1463;51.070;16.998;2024-03-07T01:43:12;5.50;99.90
2907;DHT22;1463;51.070;16.998;2024-03-07T01:45:39;5.50;99.90
2907;DHT22;1463;51.070;16.998;2024-03-07T01:48:08;5.40;99.90
2907;DHT22;1463;51.070;16.998;2024-03-07T01:50:36;5.40;99.90
2907;DHT22;1463;51.070;16.998;2024-03-07T01:53:05;5.30;99.90
2907;DHT22;1463;51.070;16.998;2024-03-07T01:55:33;5.30;99.90
2907;DHT22;1463;51.070;16.998;2024-03-07T01:58:02;5.30;99.90
2907;DHT22;1463;51.070;16.998;2024-03-07T02:00:29;5.30;99.90
2907;DHT22;1463;51.070;16.998;2024-03-07T02:02:56;5.40;99.90
2907;DHT22;1463;51.070;16.998;2024-03-07T02:05:23;5.30;99.90
2907;DHT22;1463;51.070;16.998;2024-03-07T02:07:51;5.30;99.90
2907;DHT22;1463;51.070;16.998;2024-03-07T02:10:19;5.30;99.90
2907;DHT22;1463;51.070;16.998;2024-03-07T02:12:46;5.30;99.90
2907;DHT22;1463;51.070;16.998;2024-03-07T02:15:13;5.20;99.90
2907;DHT22;1463;51.070;16.998;2024-03-07T02:17:40;5.40;99.90
2907;DHT22;1463;51.070;16.998;2024-03-07T02:20:09;5.30;99.90
2907;DHT22;1463;51.070;16.998;2024-03-07T02:22:40;5.20;99.90
2907;DHT22;1463;51.070;16.998;2024-03-07T02:25:07;5.10;99.90
2907;DHT22;1463;51.070;16.998;2024-03-07T02:27:35;5.20;99.90
2907;DHT22;1463;51.070;16.998;2024-03-07T02:30:02;5.20;99.90
2907;DHT22;1463;51.070;16.998;2024-03-07T02:32:31;5.10;99.90
2907;DHT22;1463;51.070;16.998;2024-03-07T02:34:58;5.20;99.90
2907;DHT22;1463;51.070;16.998;2024-03-07T02:37:25;5.20;99.90
2907;DHT22;1463;51.070;16.998;2024-03-07T02:39:53;5.20;99.90
2907;DHT22;1463;51.070;16.998;2024-03-07T02:42:20;5.20;99.90
2907;DHT22;1463;51.070;16.998;2024-03-07T02:44:47;5.30;99.90
2907;DHT22;1463;51.070;16.998;2024-03-07T02:47:14;5.30;99.90
2907;DHT22;1463;51.070;16.998;2024-03-07T02:49:41;5.10;99.90
2907;DHT22;1463;51.070;16.998;2024-03-07T02:52:08;5.10;99.90
2907;DHT22;1463;51.070;16.998;2024-03-07T02:54:35;5.00;99.90
2907;DHT22;1463;51.070;16.998;2024-03-07T02:57:04;5.10;99.90
2907;DHT22;1463;51.070;16.998;2024-03-07T02:59:31;5.10;99.90
2907;DHT22;1463;51.070;16.998;2024-03-07T03:01:58;5.20;99.90
2907;DHT22;1463;51.070;16.998;2024-03-07T03:04:24;5.20;99.90
2907;DHT22;1463;51.070;16.998;2024-03-07T03:06:51;5.10;99.90
2907;DHT22;1463;51.070;16.998;2024-03-07T03:09:18;5.10;99.90
2907;DHT22;1463;51.070;16.998;2024-03-07T03:11:46;5.00;99.90
2907;DHT22;1463;51.070;16.998;2024-03-07T03:14:14;5.10;99.90
2907;DHT22;1463;51.070;16.998;2024-03-07T03:16:41;5.10;99.90
2907;DHT22;1463;51.070;16.998;2024-03-07T03:19:09;5.00;99.90
2907;DHT22;1463;51.070;16.998;2024-03-07T03:21:36;4.90;99.90
2907;DHT22;1463;51.070;16.998;2024-03-07T03:24:03;5.00;99.90
2907;DHT22;1463;51.070;16.998;2024-03-07T03:26:30;5.00;99.90
2907;DHT22;1463;51.070;16.998;2024-03-07T03:28:58;4.90;99.90
2907;DHT22;1463;51.070;16.998;2024-03-07T03:31:26;4.90;99.90
2907;DHT22;1463;51.070;16.998;2024-03-07T03:33:53;4.90;99.90
2907;DHT22;1463;51.070;16.998;2024-03-07T03:36:19;4.90;99.90
2907;DHT22;1463;51.070;16.998;2024-03-07T03:38:46;4.90;99.90
2907;DHT22;1463;51.070;16.998;2024-03-07T03:41:15;4.80;99.90
2907;DHT22;1463;51.070;16.998;2024-03-07T03:43:42;4.80;99.90
2907;DHT22;1463;51.070;16.998;2024-03-07T03:46:09;4.80;99.90
2907;DHT22;1463;51.070;16.998;2024-03-07T03:48:39;4.80;99.90
2907;DHT22;1463;51.070;16.998;2024-03-07T03:51:07;4.70;99.90
2907;DHT22;1463;51.070;16.998;2024-03-07T03:53:34;4.70;99.90
2907;DHT22;1463;51.070;16.998;2024-03-07T03:56:01;4.70;99.90
2907;DHT22;1463;51.070;16.998;2024-03-07T03:58:30;4.60;99.90
2907;DHT22;1463;51.070;16.998;2024-03-07T04:00:57;4.60;99.90
2907;DHT22;1463;51.070;16.998;2024-03-07T04:03:25;4.50;99.90
2907;DHT22;1463;51.070;16.998;2024-03-07T04:05:53;4.50;99.90
2907;DHT22;1463;51.070;16.998;2024-03-07T04:08:20;4.40;99.90
2907;DHT22;1463;51.070;16.998;2024-03-07T04:10:47;4.40;99.90
2907;DHT22;1463;51.070;16.998;2024-03-07T04:13:14;4.40;99.90
2907;DHT22;1463;51.070;16.998;2024-03-07T04:15:41;4.40;99.90
2907;DHT22;1463;51.070;16.998;2024-03-07T04:18:07;4.30;99.90
2907;DHT22;1463;51.070;16.998;2024-03-07T04:20:34;4.30;99.90
2907;DHT22;1463;51.070;16.998;2024-03-07T04:23:03;4.30;99.90
2907;DHT22;1463;51.070;16.998;2024-03-07T04:25:31;4.30;99.90
2907;DHT22;1463;51.070;16.998;2024-03-07T04:27:58;4.30;99.90
2907;DHT22;1463;51.070;16.998;2024-03-07T04:30:25;4.30;99.90
2907;DHT22;1463;51.070;16.998;2024-03-07T04:32:52;4.30;99.90
2907;DHT22;1463;51.070;16.998;2024-03-07T04:35:18;4.40;99.90
2907;DHT22;1463;51.070;16.998;2024-03-07T04:37:45;4.30;99.90
2907;DHT22;1463;51.070;16.998;2024-03-07T04:40:14;4.30;99.90
2907;DHT22;1463;51.070;16.998;2024-03-07T04:42:45;4.30;99.90
2907;DHT22;1463;51.070;16.998;2024-03-07T04:45:13;4.40;99.90
2907;DHT22;1463;51.070;16.998;2024-03-07T04:47:40;4.40;99.90
2907;DHT22;1463;51.070;16.998;2024-03-07T04:50:07;4.40;99.90
2907;DHT22;1463;51.070;16.998;2024-03-07T04:52:36;4.40;99.90
2907;DHT22;1463;51.070;16.998;2024-03-07T04:55:04;4.40;99.90
2907;DHT22;1463;51.070;16.998;2024-03-07T04:57:32;4.50;99.90
2907;DHT22;1463;51.070;16.998;2024-03-07T04:59:59;4.50;99.90
2907;DHT22;1463;51.070;16.998;2024-03-07T05:02:25;4.50;99.90
2907;DHT22;1463;51.070;16.998;2024-03-07T05:04:52;4.50;99.90
2907;DHT22;1463;51.070;16.998;2024-03-07T05:07:19;4.50;99.90
2907;DHT22;1463;51.070;16.998;2024-03-07T05:09:46;4.50;99.90
2907;DHT22;1463;51.070;16.998;2024-03-07T05:12:13;4.60;99.90
2907;DHT22;1463;51.070;16.998;2024-03-07T05:14:41;4.50;99.90
2907;DHT22;1463;51.070;16.998;2024-03-07T05:17:08;4.50;99.90
2907;DHT22;1463;51.070;16.998;2024-03-07T05:19:35;4.50;99.90
2907;DHT22;1463;51.070;16.998;2024-03-07T05:22:02;4.50;99.90
2907;DHT22;1463;51.070;16.998;2024-03-07T05:24:30;4.50;99.90
2907;DHT22;1463;51.070;16.998;2024-03-07T05:26:58;4.50;99.90
2907;DHT22;1463;51.070;16.998;2024-03-07T05:29:24;4.60;99.90
2907;DHT22;1463;51.070;16.998;2024-03-07T05:31:53;4.60;99.90
2907;DHT22;1463;51.070;16.998;2024-03-07T05:34:20;4.60;99.90
2907;DHT22;1463;51.070;16.998;2024-03-07T05:36:49;4.60;99.90
2907;DHT22;1463;51.070;16.998;2024-03-07T05:39:16;4.70;99.90
2907;DHT22;1463;51.070;16.998;2024-03-07T05:41:44;4.80;99.90
2907;DHT22;1463;51.070;16.998;2024-03-07T05:44:11;4.90;99.90
2907;DHT22;1463;51.070;16.998;2024-03-07T05:46:38;4.80;99.90
2907;DHT22;1463;51.070;16.998;2024-03-07T05:49:12;4.80;99.90
2907;DHT22;1463;51.070;16.998;2024-03-07T05:51:40;4.80;99.90
2907;DHT22;1463;51.070;16.998;2024-03-07T05:54:10;4.70;99.90
2907;DHT22;1463;51.070;16.998;2024-03-07T05:56:38;4.80;99.90
2907;DHT22;1463;51.070;16.998;2024-03-07T05:59:05;4.70;99.90
2907;DHT22;1463;51.070;16.998;2024-03-07T06:01:35;4.70;99.90
2907;DHT22;1463;51.070;16.998;2024-03-07T06:04:02;4.80;99.90
2907;DHT22;1463;51.070;16.998;2024-03-07T06:06:33;4.70;99.90
2907;DHT22;1463;51.070;16.998;2024-03-07T06:09:01;4.60;99.90
2907;DHT22;1463;51.070;16.998;2024-03-07T06:11:33;4.70;99.90
2907;DHT22;1463;51.070;16.998;2024-03-07T06:13:59;4.50;99.90
2907;DHT22;1463;51.070;16.998;2024-03-07T06:16:28;4.50;99.90
2907;DHT22;1463;51.070;16.998;2024-03-07T06:18:58;4.50;99.90
2907;DHT22;1463;51.070;16.998;2024-03-07T06:21:25;4.60;99.90
2907;DHT22;1463;51.070;16.998;2024-03-07T06:23:53;4.50;99.90
2907;DHT22;1463;51.070;16.998;2024-03-07T06:26:25;4.60;99.90
2907;DHT22;1463;51.070;16.998;2024-03-07T06:29:02;4.70;99.90
2907;DHT22;1463;51.070;16.998;2024-03-07T06:31:30;4.60;99.90
2907;DHT22;1463;51.070;16.998;2024-03-07T06:33:57;4.60;99.90
2907;DHT22;1463;51.070;16.998;2024-03-07T06:36:24;4.50;99.90
2907;DHT22;1463;51.070;16.998;2024-03-07T06:38:52;4.60;99.90
2907;DHT22;1463;51.070;16.998;2024-03-07T06:41:19;4.60;99.90
2907;DHT22;1463;51.070;16.998;2024-03-07T06:43:46;4.70;99.90
2907;DHT22;1463;51.070;16.998;2024-03-07T06:46:15;4.60;99.90
2907;DHT22;1463;51.070;16.998;2024-03-07T06:48:42;4.70;99.90
2907;DHT22;1463;51.070;16.998;2024-03-07T06:51:09;4.90;99.90
2907;DHT22;1463;51.070;16.998;2024-03-07T06:53:36;4.80;99.90
2907;DHT22;1463;51.070;16.998;2024-03-07T06:56:05;4.80;99.90
2907;DHT22;1463;51.070;16.998;2024-03-07T06:58:32;4.80;99.90
2907;DHT22;1463;51.070;16.998;2024-03-07T07:00:59;4.70;99.90
2907;DHT22;1463;51.070;16.998;2024-03-07T07:03:26;4.60;99.90
2907;DHT22;1463;51.070;16.998;2024-03-07T07:05:53;4.70;99.90
2907;DHT22;1463;51.070;16.998;2024-03-07T07:08:20;4.80;99.90
2907;DHT22;1463;51.070;16.998;2024-03-07T07:10:47;4.80;99.90
2907;DHT22;1463;51.070;16.998;2024-03-07T07:13:15;4.80;99.90
2907;DHT22;1463;51.070;16.998;2024-03-07T07:15:42;4.80;99.90
2907;DHT22;1463;51.070;16.998;2024-03-07T07:18:10;4.80;99.90
2907;DHT22;1463;51.070;16.998;2024-03-07T07:20:39;4.80;99.90
2907;DHT22;1463;51.070;16.998;2024-03-07T07:23:05;4.80;99.90
2907;DHT22;1463;51.070;16.998;2024-03-07T07:25:32;4.80;99.90
2907;DHT22;1463;51.070;16.998;2024-03-07T07:27:59;4.80;99.90
2907;DHT22;1463;51.070;16.998;2024-03-07T07:30:28;4.80;99.90
2907;DHT22;1463;51.070;16.998;2024-03-07T07:32:54;4.80;99.90
2907;DHT22;1463;51.070;16.998;2024-03-07T07:35:21;4.90;99.90
2907;DHT22;1463;51.070;16.998;2024-03-07T07:37:49;4.80;99.90
2907;DHT22;1463;51.070;16.998;2024-03-07T07:40:18;4.90;99.90
2907;DHT22;1463;51.070;16.998;2024-03-07T07:42:45;4.80;99.90
2907;DHT22;1463;51.070;16.998;2024-03-07T07:45:14;4.60;99.90
2907;DHT22;1463;51.070;16.998;2024-03-07T07:47:44;4.70;99.90
2907;DHT22;1463;51.070;16.998;2024-03-07T07:50:12;4.70;99.90
2907;DHT22;1463;51.070;16.998;2024-03-07T07:52:44;4.80;99.90
2907;DHT22;1463;51.070;16.998;2024-03-07T07:55:16;4.90;99.90
2907;DHT22;1463;51.070;16.998;2024-03-07T07:57:44;5.00;99.90
2907;DHT22;1463;51.070;16.998;2024-03-07T08:00:13;4.90;99.90
2907;DHT22;1463;51.070;16.998;2024-03-07T08:02:49;4.80;99.90
2907;DHT22;1463;51.070;16.998;2024-03-07T08:05:17;4.80;99.90
2907;DHT22;1463;51.070;16.998;2024-03-07T08:07:44;4.90;99.90
2907;DHT22;1463;51.070;16.998;2024-03-07T08:10:11;5.00;99.90
2907;DHT22;1463;51.070;16.998;2024-03-07T08:12:38;4.60;99.90
2907;DHT22;1463;51.070;16.998;2024-03-07T08:15:07;4.60;99.90
2907;DHT22;1463;51.070;16.998;2024-03-07T08:17:39;4.60;99.90
2907;DHT22;1463;51.070;16.998;2024-03-07T08:20:11;4.80;99.90
2907;DHT22;1463;51.070;16.998;2024-03-07T08:22:38;4.90;99.90
2907;DHT22;1463;51.070;16.998;2024-03-07T08:25:07;4.80;99.90
2907;DHT22;1463;51.070;16.998;2024-03-07T08:27:36;4.80;99.90
2907;DHT22;1463;51.070;16.998;2024-03-07T08:30:03;4.80;99.90
2907;DHT22;1463;51.070;16.998;2024-03-07T08:32:31;4.90;99.90
2907;DHT22;1463;51.070;16.998;2024-03-07T08:34:59;4.80;99.90
2907;DHT22;1463;51.070;16.998;2024-03-07T08:37:34;4.90;99.90
2907;DHT22;1463;51.070;16.998;2024-03-07T08:40:01;4.80;99.90
2907;DHT22;1463;51.070;16.998;2024-03-07T08:42:30;4.80;99.90
2907;DHT22;1463;51.070;16.998;2024-03-07T08:44:58;4.90;99.90
2907;DHT22;1463;51.070;16.998;2024-03-07T08:47:25;4.80;99.90
2907;DHT22;1463;51.070;16.998;2024-03-07T08:49:54;4.90;99.90
2907;DHT22;1463;51.070;16.998;2024-03-07T08:52:26;5.00;99.90
2907;DHT22;1463;51.070;16.998;2024-03-07T08:54:59;5.00;99.90
2907;DHT22;1463;51.070;16.998;2024-03-07T08:57:26;5.00;99.90
2907;DHT22;1463;51.070;16.998;2024-03-07T08:59:53;4.80;99.90
2907;DHT22;1463;51.070;16.998;2024-03-07T09:02:20;4.70;99.90
2907;DHT22;1463;51.070;16.998;2024-03-07T09:04:47;4.80;99.90
2907;DHT22;1463;51.070;16.998;2024-03-07T09:07:13;4.80;99.90
2907;DHT22;1463;51.070;16.998;2024-03-07T09:09:42;4.70;99.90
2907;DHT22;1463;51.070;16.998;2024-03-07T09:12:12;4.80;99.90
2907;DHT22;1463;51.070;16.998;2024-03-07T09:14:39;4.80;99.90
2907;DHT22;1463;51.070;16.998;2024-03-07T09:17:06;4.80;99.90
2907;DHT22;1463;51.070;16.998;2024-03-07T09:19:33;4.90;99.90
2907;DHT22;1463;51.070;16.998;2024-03-07T09:22:00;4.90;99.90
2907;DHT22;1463;51.070;16.998;2024-03-07T09:24:29;5.00;99.90
2907;DHT22;1463;51.070;16.998;2024-03-07T09:26:56;5.00;99.90
2907;DHT22;1463;51.070;16.998;2024-03-07T09:29:24;5.10;99.90
2907;DHT22;1463;51.070;16.998;2024-03-07T09:31:52;5.10;99.90
2907;DHT22;1463;51.070;16.998;2024-03-07T09:34:19;5.00;99.90
2907;DHT22;1463;51.070;16.998;2024-03-07T09:36:46;5.10;99.90
2907;DHT22;1463;51.070;16.998;2024-03-07T09:39:14;5.10;99.90
2907;DHT22;1463;51.070;16.998;2024-03-07T09:41:41;5.00;99.90
2907;DHT22;1463;51.070;16.998;2024-03-07T09:44:09;4.90;99.90
2907;DHT22;1463;51.070;16.998;2024-03-07T09:46:38;4.90;99.90
2907;DHT22;1463;51.070;16.998;2024-03-07T09:49:07;5.00;99.90
2907;DHT22;1463;51.070;16.998;2024-03-07T09:51:36;5.10;99.90
2907;DHT22;1463;51.070;16.998;2024-03-07T09:54:04;5.10;99.90
2907;DHT22;1463;51.070;16.998;2024-03-07T09:56:31;5.20;99.90
2907;DHT22;1463;51.070;16.998;2024-03-07T09:58:58;5.20;99.90
2907;DHT22;1463;51.070;16.998;2024-03-07T10:01:27;5.30;99.90
2907;DHT22;1463;51.070;16.998;2024-03-07T10:03:59;5.40;99.90
2907;DHT22;1463;51.070;16.998;2024-03-07T10:06:35;5.60;99.90
2907;DHT22;1463;51.070;16.998;2024-03-07T10:09:02;5.80;99.90
2907;DHT22;1463;51.070;16.998;2024-03-07T10:11:30;5.90;99.90
2907;DHT22;1463;51.070;16.998;2024-03-07T10:13:57;6.00;99.90
2907;DHT22;1463;51.070;16.998;2024-03-07T10:16:23;6.20;99.90
2907;DHT22;1463;51.070;16.998;2024-03-07T10:18:50;6.20;99.90
2907;DHT22;1463;51.070;16.998;2024-03-07T10:21:20;6.30;99.90
2907;DHT22;1463;51.070;16.998;2024-03-07T10:23:47;6.30;99.90
2907;DHT22;1463;51.070;16.998;2024-03-07T10:26:15;6.30;99.90
2907;DHT22;1463;51.070;16.998;2024-03-07T10:28:42;6.30;99.90
2907;DHT22;1463;51.070;16.998;2024-03-07T10:31:09;6.40;99.90
2907;DHT22;1463;51.070;16.998;2024-03-07T10:33:37;6.40;99.90
2907;DHT22;1463;51.070;16.998;2024-03-07T10:36:05;6.30;99.90
2907;DHT22;1463;51.070;16.998;2024-03-07T10:38:36;6.40;99.90
2907;DHT22;1463;51.070;16.998;2024-03-07T10:41:06;6.50;99.90
2907;DHT22;1463;51.070;16.998;2024-03-07T10:43:36;6.60;99.90
2907;DHT22;1463;51.070;16.998;2024-03-07T10:46:09;6.40;99.90
2907;DHT22;1463;51.070;16.998;2024-03-07T10:48:39;6.10;99.90
2907;DHT22;1463;51.070;16.998;2024-03-07T10:51:13;6.10;99.90
2907;DHT22;1463;51.070;16.998;2024-03-07T10:53:50;6.00;99.90
2907;DHT22;1463;51.070;16.998;2024-03-07T10:56:28;6.10;99.90
2907;DHT22;1463;51.070;16.998;2024-03-07T10:59:01;6.10;99.90
2907;DHT22;1463;51.070;16.998;2024-03-07T11:01:31;5.80;99.90
2907;DHT22;1463;51.070;16.998;2024-03-07T11:03:59;5.90;99.90
2907;DHT22;1463;51.070;16.998;2024-03-07T11:06:30;5.60;99.90
2907;DHT22;1463;51.070;16.998;2024-03-07T11:09:01;5.80;99.90
2907;DHT22;1463;51.070;16.998;2024-03-07T11:11:35;5.90;99.90
2907;DHT22;1463;51.070;16.998;2024-03-07T11:14:02;5.90;99.90
2907;DHT22;1463;51.070;16.998;2024-03-07T11:16:30;6.00;99.90
2907;DHT22;1463;51.070;16.998;2024-03-07T11:19:17;5.90;99.90
2907;DHT22;1463;51.070;16.998;2024-03-07T11:21:44;5.90;99.90
2907;DHT22;1463;51.070;16.998;2024-03-07T11:24:22;5.90;99.90
2907;DHT22;1463;51.070;16.998;2024-03-07T11:26:51;6.10;99.90
2907;DHT22;1463;51.070;16.998;2024-03-07T11:29:41;6.10;99.90
2907;DHT22;1463;51.070;16.998;2024-03-07T11:32:13;6.20;99.90
2907;DHT22;1463;51.070;16.998;2024-03-07T11:34:41;6.20;99.90
2907;DHT22;1463;51.070;16.998;2024-03-07T11:37:08;6.30;99.90
2907;DHT22;1463;51.070;16.998;2024-03-07T11:39:44;6.40;99.90
2907;DHT22;1463;51.070;16.998;2024-03-07T11:42:25;6.40;99.90
2907;DHT22;1463;51.070;16.998;2024-03-07T11:44:54;6.50;99.90
2907;DHT22;1463;51.070;16.998;2024-03-07T11:47:22;6.60;99.90
2907;DHT22;1463;51.070;16.998;2024-03-07T11:49:50;6.60;99.90
2907;DHT22;1463;51.070;16.998;2024-03-07T11:52:18;6.50;99.90
2907;DHT22;1463;51.070;16.998;2024-03-07T11:54:46;6.30;99.90
2907;DHT22;1463;51.070;16.998;2024-03-07T11:57:15;6.40;99.90
2907;DHT22;1463;51.070;16.998;2024-03-07T11:59:42;6.30;99.90
2907;DHT22;1463;51.070;16.998;2024-03-07T12:02:12;6.30;99.90
2907;DHT22;1463;51.070;16.998;2024-03-07T12:04:40;6.30;99.90
2907;DHT22;1463;51.070;16.998;2024-03-07T12:07:07;6.40;99.90
2907;DHT22;1463;51.070;16.998;2024-03-07T12:09:36;6.30;99.90
2907;DHT22;1463;51.070;16.998;2024-03-07T12:12:05;6.30;99.90
2907;DHT22;1463;51.070;16.998;2024-03-07T12:14:32;6.40;99.90
2907;DHT22;1463;51.070;16.998;2024-03-07T12:17:00;6.50;99.90
2907;DHT22;1463;51.070;16.998;2024-03-07T12:19:27;6.60;99.90
2907;DHT22;1463;51.070;16.998;2024-03-07T12:21:56;6.50;99.90
2907;DHT22;1463;51.070;16.998;2024-03-07T12:24:23;6.30;99.90
2907;DHT22;1463;51.070;16.998;2024-03-07T12:26:50;6.40;99.90
2907;DHT22;1463;51.070;16.998;2024-03-07T12:29:18;6.60;99.90
2907;DHT22;1463;51.070;16.998;2024-03-07T12:31:45;6.40;99.90
2907;DHT22;1463;51.070;16.998;2024-03-07T12:34:12;6.40;99.90
2907;DHT22;1463;51.070;16.998;2024-03-07T12:36:38;6.50;99.90
2907;DHT22;1463;51.070;16.998;2024-03-07T12:39:21;6.50;99.90
2907;DHT22;1463;51.070;16.998;2024-03-07T12:42:06;6.40;99.90
2907;DHT22;1463;51.070;16.998;2024-03-07T12:44:45;6.50;99.90
2907;DHT22;1463;51.070;16.998;2024-03-07T12:47:12;6.40;99.90
2907;DHT22;1463;51.070;16.998;2024-03-07T12:49:39;6.50;99.90
2907;DHT22;1463;51.070;16.998;2024-03-07T12:52:07;6.40;99.90
2907;DHT22;1463;51.070;16.998;2024-03-07T12:54:34;6.20;99.90
2907;DHT22;1463;51.070;16.998;2024-03-07T12:57:03;6.30;99.90
2907;DHT22;1463;51.070;16.998;2024-03-07T12:59:31;6.40;99.90
2907;DHT22;1463;51.070;16.998;2024-03-07T13:02:00;6.30;99.90
2907;DHT22;1463;51.070;16.998;2024-03-07T13:04:26;6.30;99.90
2907;DHT22;1463;51.070;16.998;2024-03-07T13:06:53;6.40;99.90
2907;DHT22;1463;51.070;16.998;2024-03-07T13:09:25;6.40;99.90
2907;DHT22;1463;51.070;16.998;2024-03-07T13:11:55;6.40;99.90
2907;DHT22;1463;51.070;16.998;2024-03-07T13:14:32;6.30;99.90
2907;DHT22;1463;51.070;16.998;2024-03-07T13:17:00;6.20;99.90
2907;DHT22;1463;51.070;16.998;2024-03-07T13:19:28;6.30;99.90
2907;DHT22;1463;51.070;16.998;2024-03-07T13:21:55;6.30;99.90
2907;DHT22;1463;51.070;16.998;2024-03-07T13:24:23;6.40;99.90
2907;DHT22;1463;51.070;16.998;2024-03-07T13:26:50;6.40;99.90
2907;DHT22;1463;51.070;16.998;2024-03-07T13:29:17;6.50;99.90
2907;DHT22;1463;51.070;16.998;2024-03-07T13:31:48;6.40;99.90
2907;DHT22;1463;51.070;16.998;2024-03-07T13:34:16;6.40;99.90
2907;DHT22;1463;51.070;16.998;2024-03-07T13:36:44;6.40;99.90
2907;DHT22;1463;51.070;16.998;2024-03-07T13:39:12;6.40;99.90
2907;DHT22;1463;51.070;16.998;2024-03-07T13:41:39;6.40;99.90
2907;DHT22;1463;51.070;16.998;2024-03-07T13:44:06;6.40;99.90
2907;DHT22;1463;51.070;16.998;2024-03-07T13:46:33;6.50;99.90
2907;DHT22;1463;51.070;16.998;2024-03-07T13:49:00;6.50;99.90
2907;DHT22;1463;51.070;16.998;2024-03-07T13:51:34;6.30;99.90
2907;DHT22;1463;51.070;16.998;2024-03-07T13:54:02;6.40;99.90
2907;DHT22;1463;51.070;16.998;2024-03-07T13:56:55;6.40;99.90
2907;DHT22;1463;51.070;16.998;2024-03-07T13:59:55;6.30;99.90
2907;DHT22;1463;51.070;16.998;2024-03-07T14:02:38;6.30;99.90
2907;DHT22;1463;51.070;16.998;2024-03-07T14:05:29;6.30;99.90
2907;DHT22;1463;51.070;16.998;2024-03-07T14:08:22;6.50;99.90
2907;DHT22;1463;51.070;16.998;2024-03-07T14:11:26;6.30;99.90
2907;DHT22;1463;51.070;16.998;2024-03-07T14:14:20;6.40;99.90
2907;DHT22;1463;51.070;16.998;2024-03-07T14:17:52;6.40;99.90
2907;DHT22;1463;51.070;16.998;2024-03-07T14:23:41;6.40;99.90
2907;DHT22;1463;51.070;16.998;2024-03-07T14:26:45;6.50;99.90
2907;DHT22;1463;51.070;16.998;2024-03-07T14:29:20;6.50;99.90
2907;DHT22;1463;51.070;16.998;2024-03-07T14:31:49;6.50;99.90
2907;DHT22;1463;51.070;16.998;2024-03-07T14:34:24;6.50;99.90
2907;DHT22;1463;51.070;16.998;2024-03-07T14:36:57;6.40;99.90
2907;DHT22;1463;51.070;16.998;2024-03-07T14:39:30;6.30;99.90
2907;DHT22;1463;51.070;16.998;2024-03-07T14:42:01;6.40;99.90
2907;DHT22;1463;51.070;16.998;2024-03-07T14:44:31;6.50;99.90
2907;DHT22;1463;51.070;16.998;2024-03-07T14:47:01;6.50;99.90
2907;DHT22;1463;51.070;16.998;2024-03-07T14:49:31;6.50;99.90
2907;DHT22;1463;51.070;16.998;2024-03-07T14:51:58;6.40;99.90
2907;DHT22;1463;51.070;16.998;2024-03-07T14:54:26;6.50;99.90
2907;DHT22;1463;51.070;16.998;2024-03-07T14:56:54;6.40;99.90
2907;DHT22;1463;51.070;16.998;2024-03-07T14:59:21;6.50;99.90
2907;DHT22;1463;51.070;16.998;2024-03-07T15:01:49;6.30;99.90
2907;DHT22;1463;51.070;16.998;2024-03-07T15:04:21;6.40;99.90
2907;DHT22;1463;51.070;16.998;2024-03-07T15:06:48;6.40;99.90
2907;DHT22;1463;51.070;16.998;2024-03-07T15:09:17;6.50;99.90
2907;DHT22;1463;51.070;16.998;2024-03-07T15:11:44;6.50;99.90
2907;DHT22;1463;51.070;16.998;2024-03-07T15:14:14;6.50;99.90
2907;DHT22;1463;51.070;16.998;2024-03-07T15:16:41;6.40;99.90
2907;DHT22;1463;51.070;16.998;2024-03-07T15:19:09;6.50;99.90
2907;DHT22;1463;51.070;16.998;2024-03-07T15:21:38;6.40;99.90
2907;DHT22;1463;51.070;16.998;2024-03-07T15:24:08;6.40;99.90
2907;DHT22;1463;51.070;16.998;2024-03-07T15:26:37;6.40;99.90
2907;DHT22;1463;51.070;16.998;2024-03-07T15:29:04;6.40;99.90
2907;DHT22;1463;51.070;16.998;2024-03-07T15:31:33;6.40;99.90
2907;DHT22;1463;51.070;16.998;2024-03-07T15:34:00;6.30;99.90
2907;DHT22;1463;51.070;16.998;2024-03-07T15:36:28;6.30;99.90
2907;DHT22;1463;51.070;16.998;2024-03-07T15:38:56;6.30;99.90
2907;DHT22;1463;51.070;16.998;2024-03-07T15:41:26;6.40;99.90
2907;DHT22;1463;51.070;16.998;2024-03-07T15:43:59;6.30;99.90
2907;DHT22;1463;51.070;16.998;2024-03-07T15:46:40;6.20;99.90
2907;DHT22;1463;51.070;16.998;2024-03-07T15:49:07;6.20;99.90
2907;DHT22;1463;51.070;16.998;2024-03-07T15:51:34;6.20;99.90
2907;DHT22;1463;51.070;16.998;2024-03-07T15:54:01;6.30;99.90
2907;DHT22;1463;51.070;16.998;2024-03-07T15:56:30;6.30;99.90
2907;DHT22;1463;51.070;16.998;2024-03-07T15:58:56;6.30;99.90
2907;DHT22;1463;51.070;16.998;2024-03-07T16:01:23;6.30;99.90
2907;DHT22;1463;51.070;16.998;2024-03-07T16:03:51;6.30;99.90
2907;DHT22;1463;51.070;16.998;2024-03-07T16:06:18;6.20;99.90
2907;DHT22;1463;51.070;16.998;2024-03-07T16:08:46;6.20;99.90
2907;DHT22;1463;51.070;16.998;2024-03-07T16:11:13;6.20;99.90
2907;DHT22;1463;51.070;16.998;2024-03-07T16:13:44;6.20;99.90
2907;DHT22;1463;51.070;16.998;2024-03-07T16:16:11;6.10;99.90